Time;durP1;ratioP1;P1;durP2;ratioP2;P2;SDS_P1;SDS_P2;PMS_P1;PMS_P2;Temp;Humidity;BMP_temperature;BMP_pressure;BME280_temperature;BME280_humidity;BME280_pressure;Samples;Min_cycle;Max_cycle;Signal;HPM_P1;HPM_P2
2021/04/15 00:00:29;;;;;;;13.57;5.60;;;;;;;2.79;90.84;97045.94;5056038;28;20301;-74
2021/04/15 00:02:55;;;;;;;8.37;5.00;;;;;;;2.83;91.30;97044.78;5056539;28;20215;-74
2021/04/15 00:05:25;;;;;;;8.50;5.17;;;;;;;2.80;90.57;97047.59;5055462;28;20204;-70
2021/04/15 00:07:51;;;;;;;9.73;5.33;;;;;;;2.87;91.80;97046.19;5056586;28;20309;-74
2021/04/15 00:10:19;;;;;;;11.67;4.50;;;;;;;2.67;93.55;97043.38;5055322;28;20255;-69
2021/04/15 00:12:44;;;;;;;11.10;5.17;;;;;;;2.63;95.21;97041.94;5056818;28;20554;-70
2021/04/15 00:15:15;;;;;;;10.67;5.33;;;;;;;2.58;94.39;97050.09;5055325;28;20291;-69
2021/04/15 00:17:41;;;;;;;11.30;5.50;;;;;;;2.54;94.99;97042.59;5056334;28;20220;-70
2021/04/15 00:20:09;;;;;;;10.37;5.87;;;;;;;2.59;92.40;97038.72;5055446;28;20872;-72
2021/04/15 00:22:35;;;;;;;12.00;6.30;;;;;;;2.52;92.55;97029.69;5058552;28;20212;-73
2021/04/15 00:25:01;;;;;;;13.83;6.67;;;;;;;2.59;92.30;97033.50;5059638;28;20208;-71
2021/04/15 00:27:28;;;;;;;12.63;6.20;;;;;;;2.64;91.76;97033.19;5059964;28;20220;-74
2021/04/15 00:29:54;;;;;;;10.83;5.77;;;;;;;2.49;92.74;97026.47;5059954;28;20341;-69
2021/04/15 00:32:20;;;;;;;12.93;5.80;;;;;;;2.50;93.07;97020.34;5060210;28;20236;-71
2021/04/15 00:34:46;;;;;;;11.93;6.10;;;;;;;2.35;93.40;97021.44;5059607;28;20301;-74
2021/04/15 00:37:12;;;;;;;19.57;6.23;;;;;;;2.40;92.95;97023.72;5059062;28;20260;-71
2021/04/15 00:39:38;;;;;;;8.47;5.17;;;;;;;2.32;93.06;97016.44;5059351;28;21076;-73
2021/04/15 00:42:05;;;;;;;13.73;5.97;;;;;;;2.31;93.90;97013.97;5059618;28;20291;-69
2021/04/15 00:44:32;;;;;;;10.70;5.70;;;;;;;2.21;93.27;97018.97;5059615;28;20243;-70
2021/04/15 00:47:01;;;;;;;10.37;5.20;;;;;;;2.03;94.20;97014.25;5058778;28;20236;-73
2021/04/15 00:49:31;;;;;;;11.27;5.73;;;;;;;2.02;94.04;97009.97;5058647;28;20204;-73
2021/04/15 00:52:01;;;;;;;7.90;4.70;;;;;;;1.91;94.37;97017.69;5058915;28;20200;-69
2021/04/15 00:54:38;;;;;;;10.13;4.90;;;;;;;1.86;93.19;97011.97;5060106;28;21035;-75
2021/04/15 00:57:07;;;;;;;8.73;5.00;;;;;;;1.82;93.29;97016.56;5058285;28;20224;-70
2021/04/15 00:59:34;;;;;;;8.50;4.97;;;;;;;1.74;92.51;97010.22;5059049;28;20197;-69
2021/04/15 01:02:00;;;;;;;8.17;4.17;;;;;;;1.75;91.12;97013.66;5058799;28;20611;-69
2021/04/15 01:04:27;;;;;;;11.37;4.87;;;;;;;1.71;90.00;97012.22;5060088;28;20204;-68
2021/04/15 01:06:53;;;;;;;11.17;4.27;;;;;;;1.61;89.80;97016.38;5058176;28;20246;-69
2021/04/15 01:09:20;;;;;;;12.33;4.23;;;;;;;1.55;90.21;97012.41;5058878;28;20199;-69
2021/04/15 01:12:01;;;;;;;6.17;3.80;;;;;;;1.43;90.58;97009.81;5059206;28;20215;-70
2021/04/15 01:14:38;;;;;;;5.50;3.87;;;;;;;1.39;90.31;97014.38;5058725;28;21090;-75
2021/04/15 01:17:07;;;;;;;7.40;4.00;;;;;;;1.23;90.14;97013.75;5058633;28;20242;-74
2021/04/15 01:20:04;;;;;;;7.13;4.10;;;;;;;1.22;90.62;97012.09;5059623;28;20204;-69
2021/04/15 01:22:48;;;;;;;9.37;4.10;;;;;;;1.17;90.16;97009.91;5058428;28;20216;-69
2021/04/15 01:25:27;;;;;;;7.63;4.00;;;;;;;1.01;90.88;97020.47;5058381;28;20733;-71
2021/04/15 01:27:55;;;;;;;8.33;4.03;;;;;;;0.92;90.10;97009.88;5058715;28;20215;-72
2021/04/15 01:30:25;;;;;;;9.23;3.73;;;;;;;0.90;90.52;97011.72;5058818;28;20566;-73
2021/04/15 01:32:59;;;;;;;9.90;3.90;;;;;;;0.90;91.03;97009.94;5058254;28;20208;-73
2021/04/15 01:35:29;;;;;;;11.73;4.30;;;;;;;0.78;90.10;97012.53;5058319;28;20214;-71
2021/04/15 01:38:04;;;;;;;8.30;4.37;;;;;;;0.80;90.14;97014.09;5058106;28;20208;-71
2021/04/15 01:40:35;;;;;;;8.40;4.00;;;;;;;0.99;90.02;97005.91;5057899;28;20219;-72
2021/04/15 01:43:10;;;;;;;6.60;3.80;;;;;;;0.97;88.57;96998.25;5058393;28;20678;-71
2021/04/15 01:45:37;;;;;;;8.83;4.27;;;;;;;0.95;89.10;97013.06;5057706;28;20260;-72
2021/04/15 01:48:08;;;;;;;12.33;4.20;;;;;;;0.91;88.57;97008.19;5058330;28;20215;-74
2021/04/15 01:50:38;;;;;;;6.43;3.70;;;;;;;0.93;87.67;97006.31;5059126;28;20211;-69
2021/04/15 01:53:23;;;;;;;6.37;3.53;;;;;;;0.93;88.87;97004.56;5057737;28;20199;-73
2021/04/15 01:55:55;;;;;;;7.47;3.87;;;;;;;0.73;89.00;97006.78;5058074;28;20232;-72
2021/04/15 01:58:25;;;;;;;4.70;3.57;;;;;;;0.59;90.34;97009.44;5058249;28;20896;-74
2021/04/15 02:01:01;;;;;;;10.80;3.70;;;;;;;0.44;90.24;97007.81;5058225;28;20207;-74
2021/04/15 02:03:30;;;;;;;8.07;3.67;;;;;;;0.61;90.07;97004.97;5058221;28;20210;-69
2021/04/15 02:06:00;;;;;;;8.00;3.70;;;;;;;0.55;90.85;97010.56;5058788;28;20226;-69
2021/04/15 02:08:30;;;;;;;8.40;4.67;;;;;;;0.56;90.99;97007.06;5057613;28;20222;-70
2021/04/15 02:11:00;;;;;;;7.37;3.57;;;;;;;0.58;91.59;97009.56;5056903;28;20284;-69
2021/04/15 02:13:28;;;;;;;9.60;3.87;;;;;;;0.56;92.18;97007.06;5058036;28;20204;-70
2021/04/15 02:16:00;;;;;;;8.53;3.90;;;;;;;0.56;92.04;97001.88;5057412;28;20282;-69
2021/04/15 02:18:33;;;;;;;8.33;3.90;;;;;;;0.46;92.12;96998.19;5057659;28;20203;-71
2021/04/15 02:21:06;;;;;;;9.07;4.23;;;;;;;0.47;91.69;97001.63;5057611;28;20739;-71
2021/04/15 02:23:38;;;;;;;10.40;4.07;;;;;;;0.42;91.59;97004.50;5057734;28;20196;-71
2021/04/15 02:26:09;;;;;;;5.37;3.40;;;;;;;0.42;91.52;97001.91;5056462;28;20221;-74
2021/04/15 02:28:40;;;;;;;8.63;3.47;;;;;;;0.40;91.72;97003.78;5057452;28;20205;-68
2021/04/15 02:31:12;;;;;;;6.50;3.43;;;;;;;0.31;91.60;97000.94;5057608;28;20261;-70
2021/04/15 02:33:44;;;;;;;9.83;3.77;;;;;;;0.34;92.14;97005.91;5057169;28;20270;-69
2021/04/15 02:36:11;;;;;;;13.13;3.63;;;;;;;0.31;92.24;97001.75;5057135;28;20385;-71
2021/04/15 02:38:48;;;;;;;11.50;4.00;;;;;;;0.29;92.58;97003.59;5056256;28;20984;-71
2021/04/15 02:41:18;;;;;;;10.47;3.63;;;;;;;0.10;93.33;97005.72;5057165;28;20208;-69
2021/04/15 02:43:49;;;;;;;10.60;3.70;;;;;;;0.14;93.47;97014.09;5056414;28;20203;-69
2021/04/15 02:46:18;;;;;;;9.93;3.77;;;;;;;0.13;92.22;97008.09;5056840;28;20224;-69
2021/04/15 02:48:47;;;;;;;8.07;3.70;;;;;;;0.22;91.27;97004.94;5056942;28;20212;-70
2021/04/15 02:51:19;;;;;;;5.97;3.60;;;;;;;0.21;91.00;96999.84;5057643;28;20211;-69
2021/04/15 02:53:50;;;;;;;11.97;4.07;;;;;;;0.25;90.80;97007.31;5057510;28;20207;-72
2021/04/15 02:56:23;;;;;;;7.70;3.47;;;;;;;0.17;90.89;96996.63;5056384;28;20315;-69
2021/04/15 02:58:56;;;;;;;9.03;3.70;;;;;;;0.14;92.10;97008.91;5054027;28;20201;-75
2021/04/15 03:01:29;;;;;;;6.17;3.53;;;;;;;0.08;93.24;97004.13;5056999;28;20654;-69
2021/04/15 03:03:58;;;;;;;8.63;3.80;;;;;;;0.14;92.19;97007.19;5057625;28;20292;-72
2021/04/15 03:06:30;;;;;;;5.70;3.37;;;;;;;0.13;91.39;97013.28;5055948;28;20223;-73
2021/04/15 03:09:00;;;;;;;10.90;3.60;;;;;;;0.12;92.17;97005.59;5054409;28;20261;-73
2021/04/15 03:11:33;;;;;;;8.20;3.27;;;;;;;0.11;91.89;97004.75;5056790;28;20225;-71
2021/04/15 03:14:03;;;;;;;6.23;3.43;;;;;;;0.09;92.55;97011.00;5055944;28;20213;-73
2021/04/15 03:16:33;;;;;;;7.60;3.70;;;;;;;0.04;92.30;97011.25;5056575;28;20226;-70
2021/04/15 03:19:03;;;;;;;8.37;3.67;;;;;;;-0.02;93.42;97010.00;5056963;28;20216;-75
2021/04/15 03:21:35;;;;;;;7.13;3.77;;;;;;;-0.01;93.81;97002.94;5056269;28;20196;-76
2021/04/15 03:24:08;;;;;;;6.90;3.83;;;;;;;0.06;93.90;97005.97;5056874;28;20208;-72
2021/04/15 03:26:42;;;;;;;11.23;3.40;;;;;;;0.07;93.52;97005.88;5055995;28;20216;-71
2021/04/15 03:29:19;;;;;;;8.47;3.63;;;;;;;0.07;92.92;97007.66;5056197;28;20209;-72
2021/04/15 03:31:54;;;;;;;6.97;3.50;;;;;;;0.00;93.03;97012.38;5056363;28;20215;-70
2021/04/15 03:34:27;;;;;;;7.87;3.83;;;;;;;-0.02;93.24;97007.41;5056680;28;20211;-70
2021/04/15 03:36:56;;;;;;;8.50;3.43;;;;;;;-0.03;93.42;97010.91;5055315;28;20775;-73
2021/04/15 03:39:28;;;;;;;7.83;3.47;;;;;;;0.05;92.24;97012.94;5056131;28;20208;-70
2021/04/15 03:42:02;;;;;;;6.07;3.63;;;;;;;0.08;92.94;97014.50;5056286;28;20262;-71
2021/04/15 03:44:33;;;;;;;10.07;3.47;;;;;;;0.08;92.75;97007.56;5057157;28;20211;-69
2021/04/15 03:47:04;;;;;;;7.17;3.97;;;;;;;-0.04;92.39;97010.06;5055640;28;20224;-70
2021/04/15 03:49:35;;;;;;;7.20;3.30;;;;;;;-0.03;91.99;97003.97;5057000;28;20197;-74
2021/04/15 03:52:04;;;;;;;8.13;3.70;;;;;;;-0.02;92.18;97010.00;5056413;28;21228;-74
2021/04/15 03:54:37;;;;;;;6.13;3.27;;;;;;;-0.09;93.20;97006.09;5056540;28;20258;-71
2021/04/15 03:57:07;;;;;;;6.57;3.33;;;;;;;-0.02;93.66;97010.00;5054276;28;20256;-70
2021/04/15 03:59:42;;;;;;;8.17;4.17;;;;;;;-0.16;93.71;97000.47;5057025;28;20231;-71
2021/04/15 04:02:14;;;;;;;12.33;3.70;;;;;;;-0.15;93.72;97003.88;5056241;28;20260;-69
2021/04/15 04:04:44;;;;;;;8.13;3.87;;;;;;;-0.08;93.89;97003.41;5056967;28;20283;-72
2021/04/15 04:07:16;;;;;;;5.67;3.13;;;;;;;-0.11;93.23;97007.97;5055548;28;20231;-70
2021/04/15 04:09:48;;;;;;;8.30;3.60;;;;;;;-0.23;92.80;97003.53;5055465;28;21274;-70
2021/04/15 04:12:21;;;;;;;8.47;3.77;;;;;;;-0.31;93.87;97000.56;5055379;28;20200;-70
2021/04/15 04:14:53;;;;;;;9.30;3.67;;;;;;;-0.37;94.09;97009.56;5056636;28;20269;-69
2021/04/15 04:17:26;;;;;;;9.20;3.47;;;;;;;-0.16;93.70;97010.81;5055025;28;20251;-73
2021/04/15 04:19:55;;;;;;;12.30;3.90;;;;;;;-0.23;92.65;97014.72;5056351;28;20501;-76
2021/04/15 04:22:27;;;;;;;7.50;3.40;;;;;;;-0.32;92.76;97009.25;5055950;28;20316;-75
2021/04/15 04:24:58;;;;;;;13.10;3.80;;;;;;;-0.43;93.05;97015.09;5055329;28;20208;-69
2021/04/15 04:27:29;;;;;;;5.70;3.17;;;;;;;-0.61;94.50;97017.97;5055176;28;20286;-70
2021/04/15 04:29:58;;;;;;;6.03;3.30;;;;;;;-0.53;94.96;97018.34;5057280;28;20208;-70
2021/04/15 04:32:27;;;;;;;6.90;3.50;;;;;;;-0.56;94.35;97011.59;5054952;28;20205;-71
2021/04/15 04:34:56;;;;;;;8.03;3.30;;;;;;;-0.63;95.48;97022.38;5055758;28;20197;-73
2021/04/15 04:37:37;;;;;;;10.17;3.70;;;;;;;-0.58;94.55;97012.59;5054210;28;20286;-71
2021/04/15 04:40:05;;;;;;;6.77;3.37;;;;;;;-0.51;95.04;97025.09;5056009;28;20208;-69
2021/04/15 04:42:38;;;;;;;7.30;3.60;;;;;;;-0.59;94.52;97023.88;5055633;28;20205;-69
2021/04/15 04:45:05;;;;;;;7.90;3.70;;;;;;;-0.49;95.10;97019.81;5055915;28;20231;-70
2021/04/15 04:47:40;;;;;;;10.43;3.70;;;;;;;-0.38;95.44;97030.34;5055399;28;20270;-69
2021/04/15 04:50:10;;;;;;;10.47;3.63;;;;;;;-0.28;94.45;97026.28;5056213;28;20199;-72
2021/04/15 04:52:36;;;;;;;7.27;3.87;;;;;;;-0.27;95.18;97031.34;5055990;28;20202;-76
2021/04/15 04:55:10;;;;;;;8.77;3.83;;;;;;;-0.28;94.75;97021.94;5055276;28;20208;-72
2021/04/15 04:57:39;;;;;;;6.47;3.40;;;;;;;-0.24;94.55;97030.34;5055096;28;20640;-71
2021/04/15 05:00:10;;;;;;;7.93;3.90;;;;;;;-0.17;93.73;97029.88;5055759;28;20208;-75
2021/04/15 05:02:37;;;;;;;5.07;3.33;;;;;;;-0.23;92.51;97032.00;5055114;28;20200;-69
2021/04/15 05:05:07;;;;;;;6.43;3.33;;;;;;;-0.14;92.52;97036.63;5054843;28;20596;-70
2021/04/15 05:07:37;;;;;;;6.33;3.93;;;;;;;-0.28;93.34;97039.22;5055210;28;20555;-72
2021/04/15 05:10:04;;;;;;;11.03;3.93;;;;;;;-0.16;92.98;97034.13;5058125;28;20236;-73
2021/04/15 05:12:33;;;;;;;13.23;4.23;;;;;;;-0.02;93.07;97036.72;5059016;28;20205;-70
2021/04/15 05:15:00;;;;;;;9.30;4.10;;;;;;;0.06;92.67;97042.25;5058626;28;20209;-74
2021/04/15 05:17:29;;;;;;;12.40;3.80;;;;;;;0.12;91.47;97041.88;5058830;28;20225;-73
2021/04/15 05:19:59;;;;;;;5.37;3.37;;;;;;;0.13;92.18;97036.59;5059228;28;20205;-70
2021/04/15 05:22:30;;;;;;;11.07;4.03;;;;;;;0.05;92.51;97046.63;5059573;28;20714;-71
2021/04/15 05:25:01;;;;;;;11.87;4.50;;;;;;;0.10;93.17;97043.72;5058921;28;20204;-71
2021/04/15 05:27:28;;;;;;;8.00;4.07;;;;;;;0.22;93.27;97038.63;5059742;28;20229;-72
2021/04/15 05:30:05;;;;;;;10.23;4.30;;;;;;;0.31;93.73;97050.19;5059220;28;20205;-70
2021/04/15 05:32:32;;;;;;;10.17;4.13;;;;;;;0.23;94.60;97055.84;5059336;28;20205;-69
2021/04/15 05:35:00;;;;;;;8.63;4.20;;;;;;;0.33;94.18;97046.56;5058581;28;20574;-70
2021/04/15 05:37:28;;;;;;;10.10;4.40;;;;;;;0.44;93.11;97054.47;5059181;28;20232;-70
2021/04/15 05:39:55;;;;;;;9.13;4.17;;;;;;;0.51;91.56;97054.94;5057681;28;20749;-69
2021/04/15 05:42:27;;;;;;;8.93;3.83;;;;;;;0.63;90.85;97050.63;5058317;28;20211;-69
2021/04/15 05:44:57;;;;;;;8.80;4.17;;;;;;;0.78;90.66;97052.25;5058772;28;20210;-70
2021/04/15 05:47:27;;;;;;;8.27;4.43;;;;;;;0.83;91.55;97054.56;5058427;28;20233;-70
2021/04/15 05:49:58;;;;;;;8.43;4.30;;;;;;;0.94;91.52;97047.75;5058510;28;20208;-70
2021/04/15 05:52:31;;;;;;;10.43;4.30;;;;;;;0.71;91.36;97048.41;5058125;28;20261;-70
2021/04/15 05:55:00;;;;;;;8.37;4.40;;;;;;;0.80;90.34;97046.94;5058832;28;20267;-74
2021/04/15 05:57:31;;;;;;;8.30;4.10;;;;;;;0.84;90.53;97046.69;5059100;28;20231;-70
2021/04/15 06:00:08;;;;;;;10.33;4.37;;;;;;;0.96;91.05;97042.47;5058284;28;20205;-73
2021/04/15 06:02:51;;;;;;;7.77;4.33;;;;;;;1.05;90.80;97047.03;5058547;28;20204;-71
2021/04/15 06:05:22;;;;;;;11.73;4.30;;;;;;;1.22;88.65;97044.97;5056974;28;20212;-74
2021/04/15 06:07:52;;;;;;;10.77;4.80;;;;;;;1.29;88.72;97039.28;5057974;28;20243;-70
2021/04/15 06:10:22;;;;;;;9.50;5.07;;;;;;;1.44;89.42;97046.06;5057611;28;20750;-70
2021/04/15 06:13:01;;;;;;;10.80;4.83;;;;;;;1.43;88.57;97049.59;5058793;28;20230;-73
2021/04/15 06:15:32;;;;;;;10.13;4.83;;;;;;;1.52;89.03;97051.56;5056756;28;20208;-74
2021/04/15 06:18:09;;;;;;;11.57;5.03;;;;;;;1.67;89.36;97047.94;5058672;28;20224;-70
2021/04/15 06:20:38;;;;;;;11.90;5.63;;;;;;;1.64;91.34;97053.31;5056647;28;20297;-74
2021/04/15 06:23:12;;;;;;;10.23;5.50;;;;;;;1.61;93.26;97053.53;5058400;28;20205;-70
2021/04/15 06:25:39;;;;;;;12.47;5.30;;;;;;;1.70;89.76;97059.91;5056332;28;20199;-70
2021/04/15 06:28:09;;;;;;;11.57;5.33;;;;;;;1.77;90.74;97058.53;5058081;28;20259;-70
2021/04/15 06:30:41;;;;;;;15.47;5.80;;;;;;;1.78;90.06;97055.81;5057828;28;20196;-75
2021/04/15 06:33:10;;;;;;;12.97;5.33;;;;;;;2.01;91.20;97058.53;5057610;28;20204;-71
2021/04/15 06:35:37;;;;;;;11.97;5.63;;;;;;;1.97;91.75;97058.84;5056091;28;20676;-70
2021/04/15 06:38:09;;;;;;;10.57;6.23;;;;;;;2.18;91.88;97065.16;5058283;28;20230;-76
2021/04/15 06:41:03;;;;;;;14.70;6.00;;;;;;;2.13;89.23;97057.69;5057176;28;20994;-70
2021/04/15 06:44:11;;;;;;;11.00;5.63;;;;;;;2.16;89.69;97065.25;5058004;28;20207;-73
2021/04/15 06:46:55;;;;;;;13.03;5.83;;;;;;;2.23;89.01;97065.66;5056869;28;20216;-70
2021/04/15 06:49:41;;;;;;;12.37;5.60;;;;;;;2.43;87.95;97066.78;5057371;28;20211;-70
2021/04/15 06:52:18;;;;;;;17.23;5.70;;;;;;;2.35;86.76;97068.22;5057248;28;20212;-71
2021/04/15 06:54:58;;;;;;;10.60;5.47;;;;;;;2.55;87.90;97059.88;5057849;28;20204;-75
2021/04/15 06:57:42;;;;;;;13.30;6.30;;;;;;;2.63;88.04;97053.16;5056318;28;20231;-74
2021/04/15 07:00:33;;;;;;;13.97;5.80;;;;;;;2.62;85.22;97056.72;5057583;28;20212;-70
2021/04/15 07:03:09;;;;;;;11.97;6.00;;;;;;;2.82;87.46;97063.09;5057172;28;20595;-73
2021/04/15 07:05:47;;;;;;;11.50;6.43;;;;;;;2.98;89.02;97056.69;5056090;28;20201;-69
2021/04/15 07:08:44;;;;;;;10.63;6.03;;;;;;;3.02;85.15;97058.94;5057197;28;20703;-73
2021/04/15 07:11:25;;;;;;;12.70;6.50;;;;;;;3.13;85.44;97059.00;5056063;28;20405;-75
2021/04/15 07:14:15;;;;;;;10.73;5.90;;;;;;;3.09;85.76;97051.50;5057328;28;20674;-71
2021/04/15 07:17:02;;;;;;;16.67;6.77;;;;;;;3.14;86.67;97058.06;5056539;28;20224;-69
2021/04/15 07:20:19;;;;;;;15.13;6.20;;;;;;;3.20;82.73;97059.38;5057914;28;20766;-70
2021/04/15 07:23:39;;;;;;;18.27;6.20;;;;;;;3.26;85.81;97064.09;5057228;28;20212;-70
2021/04/15 07:26:31;;;;;;;13.53;6.83;;;;;;;3.43;86.16;97063.72;5055324;28;20247;-71
2021/04/15 07:29:28;;;;;;;20.67;6.73;;;;;;;3.42;85.31;97069.88;5042251;28;20580;-69
2021/04/15 07:32:29;;;;;;;12.53;5.90;;;;;;;3.50;85.28;97067.50;5057123;28;20254;-70
2021/04/15 07:35:07;;;;;;;11.50;6.20;;;;;;;3.56;84.49;97067.06;5025084;28;20200;-70
2021/04/15 07:38:15;;;;;;;13.40;6.83;;;;;;;3.70;84.24;97068.53;5056070;28;20224;-72
2021/04/15 07:41:03;;;;;;;13.03;6.47;;;;;;;4.01;84.96;97067.84;5056592;28;20223;-70
2021/04/15 07:44:11;;;;;;;13.60;6.60;;;;;;;3.89;81.35;97066.16;5056624;28;20269;-70
2021/04/15 07:46:49;;;;;;;12.43;6.50;;;;;;;4.07;81.63;97074.38;5007828;28;20219;-75
2021/04/15 07:49:39;;;;;;;14.07;6.73;;;;;;;4.03;80.92;97073.75;5057642;28;20211;-70
2021/04/15 07:52:36;;;;;;;15.13;6.57;;;;;;;4.00;78.90;97068.78;5056834;28;20212;-74
2021/04/15 07:55:33;;;;;;;12.40;6.60;;;;;;;4.09;80.08;97078.53;5056737;28;20200;-72
2021/04/15 07:58:13;;;;;;;15.37;6.77;;;;;;;4.13;83.27;97074.72;5056655;28;20221;-72
2021/04/15 08:00:59;;;;;;;12.30;7.07;;;;;;;4.17;82.37;97078.75;5057594;28;20196;-73
2021/04/15 08:03:52;;;;;;;12.40;6.10;;;;;;;4.27;78.12;97071.88;5056448;28;20201;-70
2021/04/15 08:06:36;;;;;;;13.03;6.80;;;;;;;4.54;83.37;97080.19;5056186;28;20317;-72
2021/04/15 08:09:33;;;;;;;11.90;6.17;;;;;;;4.59;80.65;97078.03;5056457;28;20212;-75
2021/04/15 08:12:41;;;;;;;13.27;6.60;;;;;;;4.60;77.54;97079.69;5000756;28;20633;-73
2021/04/15 08:15:48;;;;;;;12.37;6.87;;;;;;;4.84;78.76;97074.19;5056640;28;20197;-71
2021/04/15 08:18:38;;;;;;;11.80;5.90;;;;;;;5.23;74.58;97071.00;5011712;28;20244;-75
2021/04/15 08:21:17;;;;;;;11.70;6.40;;;;;;;5.08;75.39;97071.41;5057033;28;20215;-74
2021/04/15 08:23:57;;;;;;;12.53;6.47;;;;;;;5.40;73.69;97075.66;5055978;28;20222;-71
2021/04/15 08:26:52;;;;;;;12.47;6.50;;;;;;;5.08;73.51;97069.63;5055226;28;20231;-73
2021/04/15 08:29:39;;;;;;;13.60;7.13;;;;;;;5.38;74.88;97071.53;5055917;28;20262;-71
2021/04/15 08:32:17;;;;;;;14.17;6.43;;;;;;;5.47;74.30;97076.81;5056564;28;20276;-70
2021/04/15 08:34:56;;;;;;;13.87;7.00;;;;;;;5.77;74.21;97069.91;5056374;28;20200;-69
2021/04/15 08:37:34;;;;;;;12.07;6.60;;;;;;;6.10;70.59;97067.09;5055921;28;20291;-75
2021/04/15 08:40:25;;;;;;;13.43;7.17;;;;;;;6.15;68.69;97072.78;5056010;28;20212;-73
2021/04/15 08:43:04;;;;;;;12.83;6.63;;;;;;;6.51;71.87;97067.81;5056945;28;20207;-71
2021/04/15 08:45:41;;;;;;;15.07;6.63;;;;;;;6.40;69.97;97067.94;5059415;28;20204;-75
2021/04/15 08:48:22;;;;;;;9.37;6.20;;;;;;;6.33;68.16;97064.16;5060601;28;20204;-73
2021/04/15 08:50:57;;;;;;;15.87;6.73;;;;;;;6.33;67.24;97050.25;5060704;28;20208;-71
2021/04/15 08:53:47;;;;;;;12.17;6.57;;;;;;;6.75;64.65;97060.47;5060015;28;20196;-70
2021/04/15 08:56:20;;;;;;;15.43;7.00;;;;;;;7.14;66.85;97059.56;5060090;28;20224;-70
2021/04/15 08:58:59;;;;;;;10.83;5.90;;;;;;;7.10;62.92;97051.13;5060005;28;20211;-71
2021/04/15 09:01:39;;;;;;;13.20;6.20;;;;;;;6.93;65.09;97057.03;5060162;28;20204;-74
2021/04/15 09:04:12;;;;;;;12.87;5.70;;;;;;;7.17;63.23;97052.25;5060351;28;20985;-76
2021/04/15 09:06:45;;;;;;;13.00;5.77;;;;;;;7.52;64.43;97044.66;5059141;28;20224;-74
2021/04/15 09:09:20;;;;;;;9.17;5.97;;;;;;;7.34;64.89;97049.81;5060218;28;20211;-70
2021/04/15 09:12:03;;;;;;;12.00;5.23;;;;;;;6.93;61.70;97040.50;5059811;28;20204;-72
2021/04/15 09:14:45;;;;;;;77.43;8.47;;;;;;;7.08;64.16;97049.66;5059517;28;20207;-72
2021/04/15 09:17:15;;;;;;;10.77;5.03;;;;;;;7.03;58.78;97057.91;5059732;28;20232;-70
2021/04/15 09:19:51;;;;;;;11.03;5.10;;;;;;;7.19;60.05;97057.38;5059811;28;20282;-71
2021/04/15 09:22:41;;;;;;;9.73;5.27;;;;;;;7.03;60.88;97049.22;5059494;28;20212;-72
2021/04/15 09:25:20;;;;;;;9.77;5.20;;;;;;;7.68;57.78;97050.19;5059157;28;20286;-69
2021/04/15 09:27:54;;;;;;;8.83;5.70;;;;;;;7.80;60.72;97039.38;5059861;28;21347;-71
2021/04/15 09:30:32;;;;;;;8.87;5.30;;;;;;;8.29;61.11;97047.06;5058533;28;20673;-74
2021/04/15 09:33:04;;;;;;;11.50;5.33;;;;;;;8.00;56.99;97041.00;5058962;28;20200;-72
2021/04/15 09:35:44;;;;;;;13.60;5.07;;;;;;;8.01;57.47;97042.69;5058713;28;20212;-73
2021/04/15 09:38:50;;;;;;;7.97;4.40;;;;;;;7.73;56.40;97046.19;5059288;28;20224;-71
2021/04/15 09:41:34;;;;;;;8.03;4.73;;;;;;;7.54;57.04;97048.81;5041453;28;20211;-71
2021/04/15 09:44:13;;;;;;;11.03;5.10;;;;;;;7.64;55.52;97043.56;5059845;28;20200;-70
2021/04/15 09:46:51;;;;;;;9.80;4.77;;;;;;;7.56;55.04;97036.41;5057860;28;20224;-73
2021/04/15 09:49:37;;;;;;;9.73;5.10;;;;;;;7.83;62.38;97041.75;5059472;28;20208;-71
2021/04/15 09:52:29;;;;;;;11.30;4.60;;;;;;;7.66;60.27;97044.25;5058273;28;20210;-75
2021/04/15 09:55:12;;;;;;;7.50;4.40;;;;;;;7.89;55.70;97030.66;5058830;28;20602;-74
2021/04/15 09:57:43;;;;;;;8.03;4.13;;;;;;;7.92;51.00;97039.09;5058514;28;20723;-72
2021/04/15 10:00:17;;;;;;;7.70;4.30;;;;;;;8.22;54.44;97038.94;5059182;28;20753;-76
2021/04/15 10:03:09;;;;;;;9.23;5.03;;;;;;;8.19;54.26;97030.50;5058624;28;20189;-71
2021/04/15 10:05:54;;;;;;;8.50;4.83;;;;;;;7.92;51.09;97027.78;5058125;28;20211;-71
2021/04/15 10:08:29;;;;;;;10.33;4.67;;;;;;;7.78;54.79;97030.84;5057973;28;20196;-72
2021/04/15 10:11:11;;;;;;;9.07;4.70;;;;;;;7.83;52.50;97028.63;5058028;28;20218;-74
2021/04/15 10:14:11;;;;;;;9.30;4.60;;;;;;;8.11;54.32;97023.31;5059336;28;20196;-75
2021/04/15 10:16:42;;;;;;;8.97;4.40;;;;;;;6.96;53.22;97024.50;5057162;28;20335;-73
2021/04/15 10:19:36;;;;;;;12.47;4.80;;;;;;;6.70;51.99;97026.00;5058340;28;20215;-70
2021/04/15 10:22:09;;;;;;;8.63;4.20;;;;;;;6.28;53.30;97032.31;5058506;28;20204;-70
2021/04/15 10:24:40;;;;;;;8.67;4.67;;;;;;;6.17;52.26;97029.81;5058206;28;20201;-73
2021/04/15 10:28:00;;;;;;;7.27;4.30;;;;;;;6.41;51.58;97019.00;5057055;28;20243;-73
2021/04/15 10:30:52;;;;;;;4.00;2.80;;;;;;;6.31;51.40;97020.75;5058644;28;20653;-73
2021/04/15 10:33:58;;;;;;;4.30;2.80;;;;;;;6.54;50.73;97027.44;5058198;28;20616;-70
2021/04/15 10:36:51;;;;;;;4.93;2.33;;;;;;;6.05;56.01;97037.88;5056714;28;20235;-70
2021/04/15 10:39:52;;;;;;;5.00;2.60;;;;;;;6.03;53.97;97041.56;5057824;28;20208;-71
2021/04/15 10:42:42;;;;;;;3.87;2.67;;;;;;;6.19;54.73;97040.97;5057465;28;20574;-73
2021/04/15 10:45:39;;;;;;;5.00;3.03;;;;;;;6.19;57.51;97033.09;5057622;28;20208;-73
2021/04/15 10:48:21;;;;;;;5.87;2.83;;;;;;;6.21;57.42;97041.66;5057330;28;20662;-73
2021/04/15 10:50:57;;;;;;;4.77;2.80;;;;;;;6.49;57.84;97040.13;5057839;28;20205;-75
2021/04/15 10:53:47;;;;;;;5.73;3.33;;;;;;;7.14;57.14;97033.34;5057784;28;20200;-70
2021/04/15 10:56:32;;;;;;;7.03;3.90;;;;;;;6.75;60.05;97032.47;5056945;28;21034;-71
2021/04/15 10:59:09;;;;;;;8.03;4.70;;;;;;;6.65;56.81;97036.03;5057049;28;20208;-72
2021/04/15 11:01:38;;;;;;;7.03;4.20;;;;;;;7.12;59.44;97030.06;5057150;28;20200;-70
2021/04/15 11:04:23;;;;;;;7.93;4.40;;;;;;;7.18;59.04;97022.47;5057419;28;20559;-75
2021/04/15 11:06:52;;;;;;;6.73;3.50;;;;;;;7.69;54.96;97018.56;5056206;28;20224;-75
2021/04/15 11:09:22;;;;;;;9.43;4.33;;;;;;;8.02;56.27;97013.66;5056382;28;20238;-70
2021/04/15 11:11:58;;;;;;;8.73;4.67;;;;;;;8.30;57.63;97004.03;5056999;28;20208;-74
2021/04/15 11:14:26;;;;;;;8.40;4.33;;;;;;;8.60;52.79;97001.97;5056175;28;20200;-72
2021/04/15 11:16:55;;;;;;;7.80;3.53;;;;;;;8.84;50.23;96997.00;5055946;28;20228;-75
2021/04/15 11:19:25;;;;;;;6.77;4.20;;;;;;;9.05;51.38;96995.75;5056465;28;20292;-74
2021/04/15 11:21:53;;;;;;;6.10;4.00;;;;;;;8.73;48.75;97000.66;5056815;28;20666;-72
2021/04/15 11:24:26;;;;;;;8.77;4.33;;;;;;;9.09;55.57;96997.09;5057740;28;20205;-74
2021/04/15 11:26:53;;;;;;;9.90;4.50;;;;;;;9.28;49.62;96996.97;5056281;28;20225;-70
2021/04/15 11:29:22;;;;;;;5.93;3.80;;;;;;;8.75;48.68;96997.88;5056564;28;20208;-76
2021/04/15 11:31:48;;;;;;;7.00;3.73;;;;;;;9.15;48.99;96985.97;5056276;28;20197;-71
2021/04/15 11:34:21;;;;;;;6.70;3.67;;;;;;;9.34;51.08;96983.19;5056745;28;20204;-73
2021/04/15 11:37:01;;;;;;;6.13;4.00;;;;;;;9.54;50.24;96992.56;5055783;28;20256;-69
2021/04/15 11:39:30;;;;;;;5.07;3.40;;;;;;;9.15;52.59;96985.97;5056009;28;21606;-74
2021/04/15 11:41:59;;;;;;;7.50;3.50;;;;;;;9.38;48.28;96981.91;5056736;28;20579;-72
2021/04/15 11:44:29;;;;;;;5.67;3.57;;;;;;;9.55;48.03;96981.06;5055515;28;20312;-72
2021/04/15 11:46:58;;;;;;;7.10;3.73;;;;;;;9.48;48.92;96987.91;5055330;28;20293;-72
2021/04/15 11:49:30;;;;;;;6.80;3.80;;;;;;;9.56;47.54;96972.19;5055410;28;20205;-72
2021/04/15 11:52:15;;;;;;;5.37;3.30;;;;;;;10.15;43.22;96971.28;5056147;28;20283;-73
2021/04/15 11:54:44;;;;;;;16.30;3.67;;;;;;;10.33;48.54;96969.41;5055572;28;20200;-72
2021/04/15 11:57:30;;;;;;;6.13;3.57;;;;;;;9.34;46.96;96972.66;5055168;28;20294;-70
2021/04/15 12:00:21;;;;;;;9.73;4.40;;;;;;;10.04;51.17;96963.69;5055518;28;20208;-74
2021/04/15 12:03:00;;;;;;;6.30;3.87;;;;;;;10.37;49.87;96955.78;5055794;28;20192;-70
2021/04/15 12:05:30;;;;;;;8.13;4.40;;;;;;;10.72;51.50;96954.75;5055001;28;20200;-76
2021/04/15 12:08:00;;;;;;;6.30;4.00;;;;;;;10.70;47.22;96954.88;5055275;28;20231;-76
2021/04/15 12:10:31;;;;;;;8.00;4.23;;;;;;;10.83;52.47;96954.44;5055161;28;20208;-75
2021/04/15 12:13:01;;;;;;;8.23;4.20;;;;;;;10.12;44.96;96958.44;5055756;28;20238;-72
2021/04/15 12:15:33;;;;;;;6.37;3.77;;;;;;;9.35;42.93;96983.03;5054971;28;20975;-71
2021/04/15 12:18:04;;;;;;;8.00;4.43;;;;;;;8.73;48.01;96976.16;5056156;28;20281;-70